createdAt,value
2022-07-29T00:01:01.287Z,48.09
2022-07-29T00:03:29.343Z,47.57
2022-07-29T00:05:57.377Z,47.53
2022-07-29T00:08:27.447Z,47.71
2022-07-29T00:10:56.649Z,47.50
2022-07-29T00:13:32.278Z,47.61
2022-07-29T00:16:04.470Z,47.96
2022-07-29T00:18:33.363Z,47.46
2022-07-29T00:21:01.578Z,48.03
2022-07-29T00:23:30.700Z,47.74
2022-07-29T00:26:03.403Z,47.48
2022-07-29T00:28:34.334Z,48.15
2022-07-29T00:31:03.081Z,47.98
2022-07-29T00:33:31.413Z,47.97
2022-07-29T00:35:59.027Z,48.06
2022-07-29T00:38:26.923Z,48.52
2022-07-29T00:40:54.901Z,48.30
2022-07-29T00:43:24.276Z,47.80
2022-07-29T00:45:55.034Z,48.33
2022-07-29T00:48:23.088Z,48.02
2022-07-29T00:50:58.134Z,48.11
2022-07-29T00:53:26.920Z,48.44
2022-07-29T00:55:56.124Z,47.98
2022-07-29T00:58:25.805Z,48.56
2022-07-29T01:00:54.061Z,48.13
2022-07-29T01:03:22.113Z,48.43
2022-07-29T01:05:51.408Z,48.55
2022-07-29T01:08:23.867Z,48.38
2022-07-29T01:10:54.762Z,48.50
2022-07-29T01:13:23.357Z,48.13
2022-07-29T01:15:58.754Z,48.20
2022-07-29T01:18:37.065Z,48.72
2022-07-29T01:21:36.982Z,48.73
2022-07-29T01:24:25.608Z,48.42
2022-07-29T01:27:30.011Z,49.11
2022-07-29T01:30:05.211Z,49.38
2022-07-29T01:32:37.662Z,49.07
2022-07-29T01:35:08.467Z,48.81
2022-07-29T01:37:45.042Z,48.98
2022-07-29T01:40:22.723Z,48.81
2022-07-29T01:42:54.442Z,48.84
2022-07-29T01:45:29.025Z,48.91
2022-07-29T01:48:02.498Z,49.08
2022-07-29T01:50:35.505Z,49.00
2022-07-29T01:53:06.870Z,49.13
2022-07-29T01:55:40.535Z,49.00
2022-07-29T01:58:09.845Z,48.98
2022-07-29T02:00:43.810Z,48.78
2022-07-29T02:03:13.265Z,51.79
2022-07-29T02:05:44.496Z,49.07
2022-07-29T02:08:14.047Z,49.05
2022-07-29T02:10:53.454Z,49.40
2022-07-29T02:13:24.422Z,48.84
2022-07-29T02:15:58.153Z,49.48
2022-07-29T02:18:29.364Z,49.30
2022-07-29T02:20:58.832Z,49.24
2022-07-29T02:23:30.785Z,49.73
2022-07-29T02:26:05.742Z,49.39
2022-07-29T02:28:36.356Z,49.81
2022-07-29T02:31:12.344Z,49.84
2022-07-29T02:33:45.545Z,49.76
2022-07-29T02:39:01.591Z,49.97
2022-07-29T02:41:55.570Z,49.74
2022-07-29T02:44:29.041Z,49.71
2022-07-29T02:47:09.534Z,49.99
2022-07-29T02:49:46.130Z,50.12
2022-07-29T02:52:29.461Z,50.16
2022-07-29T02:55:02.222Z,50.34
2022-07-29T02:57:53.827Z,49.76
2022-07-29T03:00:25.872Z,50.15
2022-07-29T03:02:57.124Z,49.75
2022-07-29T03:05:33.103Z,49.70
2022-07-29T03:08:04.736Z,49.90
2022-07-29T03:13:32.938Z,49.82
2022-07-29T03:16:01.558Z,50.05
2022-07-29T03:18:38.351Z,50.11
2022-07-29T03:21:06.531Z,50.01
2022-07-29T03:23:54.165Z,50.50
2022-07-29T03:26:22.240Z,50.27
2022-07-29T03:28:52.976Z,50.25
2022-07-29T03:31:33.372Z,50.27
2022-07-29T03:34:08.318Z,50.01
2022-07-29T03:36:36.189Z,50.28
2022-07-29T03:39:09.293Z,50.02
2022-07-29T03:41:42.757Z,50.10
2022-07-29T03:44:11.856Z,50.23
2022-07-29T03:46:41.919Z,50.40
2022-07-29T03:49:22.648Z,50.47
2022-07-29T03:51:51.565Z,50.53
2022-07-29T03:54:24.415Z,50.55
2022-07-29T03:56:54.561Z,50.13
2022-07-29T03:59:23.941Z,50.47
2022-07-29T04:01:52.526Z,50.93
2022-07-29T04:04:24.934Z,51.11
2022-07-29T04:06:57.345Z,50.56
2022-07-29T04:09:25.277Z,51.10
2022-07-29T04:12:02.640Z,50.58
2022-07-29T04:14:32.698Z,50.67
2022-07-29T04:17:01.470Z,50.35
2022-07-29T04:19:30.853Z,50.70
2022-07-29T04:21:58.748Z,50.60
2022-07-29T04:24:30.240Z,50.72
2022-07-29T04:27:07.230Z,50.44
2022-07-29T04:29:35.094Z,50.75
2022-07-29T04:32:03.081Z,51.01
2022-07-29T04:34:32.780Z,50.90
2022-07-29T04:37:09.777Z,50.92
2022-07-29T04:39:38.280Z,51.26
2022-07-29T04:42:09.084Z,51.21
2022-07-29T04:44:39.557Z,50.97
2022-07-29T04:47:13.471Z,50.90
2022-07-29T04:49:45.639Z,51.30
2022-07-29T04:52:17.274Z,51.18
2022-07-29T04:54:45.211Z,51.23
2022-07-29T04:57:20.687Z,51.16
2022-07-29T04:59:57.925Z,51.22
2022-07-29T05:02:26.027Z,50.98
2022-07-29T05:05:06.883Z,50.93
2022-07-29T05:07:44.154Z,51.22
2022-07-29T05:10:12.890Z,51.21
2022-07-29T05:12:40.773Z,51.60
2022-07-29T05:15:11.585Z,52.00
2022-07-29T05:17:44.490Z,51.60
2022-07-29T05:20:30.031Z,51.66
2022-07-29T05:22:58.472Z,51.18
2022-07-29T05:25:43.116Z,50.94
2022-07-29T05:28:30.768Z,50.78
2022-07-29T05:30:59.482Z,50.33
2022-07-29T05:33:34.969Z,50.63
2022-07-29T05:36:08.163Z,50.59
2022-07-29T05:38:36.961Z,49.94
2022-07-29T05:41:05.409Z,49.37
2022-07-29T05:43:33.449Z,48.81
2022-07-29T05:46:05.447Z,49.12
2022-07-29T05:48:36.642Z,49.04
2022-07-29T05:51:06.159Z,50.20
2022-07-29T05:53:52.602Z,50.32
2022-07-29T05:56:20.558Z,50.30
2022-07-29T05:58:50.898Z,50.57
2022-07-29T06:01:18.840Z,51.03
2022-07-29T06:03:59.141Z,51.57
2022-07-29T06:06:28.681Z,51.28
2022-07-29T06:08:56.621Z,50.57
2022-07-29T06:11:24.581Z,50.61
2022-07-29T06:13:59.931Z,51.09
2022-07-29T06:16:30.219Z,50.51
2022-07-29T06:21:48.872Z,49.94
2022-07-29T06:24:18.018Z,49.51
2022-07-29T06:26:50.441Z,48.90
2022-07-29T06:29:18.299Z,48.61
2022-07-29T06:31:54.741Z,48.09
2022-07-29T06:34:23.485Z,47.24
2022-07-29T06:36:55.838Z,46.87
2022-07-29T06:39:31.799Z,47.18
2022-07-29T06:41:59.754Z,47.96
2022-07-29T06:47:09.356Z,49.14
2022-07-29T06:49:39.712Z,49.05
2022-07-29T06:52:11.622Z,48.78
2022-07-29T06:54:40.829Z,48.67
2022-07-29T06:57:08.774Z,48.32
2022-07-29T06:59:37.384Z,48.18
2022-07-29T07:02:11.161Z,47.78
2022-07-29T07:04:41.359Z,47.77
2022-07-29T07:07:10.582Z,48.12
2022-07-29T07:09:41.519Z,48.12
2022-07-29T07:12:21.525Z,49.23
2022-07-29T07:14:57.783Z,48.20
2022-07-29T07:17:25.747Z,47.85
2022-07-29T07:19:56.739Z,47.28
2022-07-29T07:22:48.333Z,47.12
2022-07-29T07:25:25.568Z,47.28
2022-07-29T07:27:53.812Z,47.54
2022-07-29T07:30:21.790Z,47.23
2022-07-29T07:32:50.868Z,47.95
2022-07-29T07:35:21.758Z,47.64
2022-07-29T07:37:51.802Z,47.72
2022-07-29T07:40:24.056Z,48.08
2022-07-29T07:42:52.007Z,47.97
2022-07-29T07:45:22.844Z,48.19
2022-07-29T07:47:59.757Z,48.05
2022-07-29T07:50:44.755Z,48.23
2022-07-29T07:53:17.068Z,48.83
2022-07-29T07:58:43.086Z,48.74
2022-07-29T08:01:11.860Z,48.89
2022-07-29T08:03:45.526Z,48.37
2022-07-29T08:06:14.414Z,48.38
2022-07-29T08:08:44.094Z,48.14
2022-07-29T08:11:11.994Z,48.27
2022-07-29T08:13:40.394Z,48.10
2022-07-29T08:16:16.194Z,48.13
2022-07-29T08:18:45.836Z,48.42
2022-07-29T08:21:15.071Z,48.55
2022-07-29T08:23:58.959Z,48.57
2022-07-29T08:26:28.785Z,48.52
2022-07-29T08:28:56.679Z,48.78
2022-07-29T08:31:27.433Z,48.88
2022-07-29T08:34:00.710Z,49.06
2022-07-29T08:36:28.603Z,49.03
2022-07-29T08:38:57.845Z,48.90
2022-07-29T08:41:29.056Z,48.97
2022-07-29T08:43:57.029Z,48.59
2022-07-29T08:46:25.360Z,48.66
2022-07-29T08:48:53.349Z,48.55
2022-07-29T08:51:23.095Z,48.68
2022-07-29T08:53:56.035Z,48.64
2022-07-29T08:56:26.156Z,48.69
2022-07-29T08:58:56.003Z,48.78
2022-07-29T09:01:36.034Z,49.04
2022-07-29T09:04:16.709Z,48.77
2022-07-29T09:06:49.959Z,48.68
2022-07-29T09:09:19.771Z,48.69
2022-07-29T09:11:49.489Z,48.58
2022-07-29T09:14:17.433Z,48.42
2022-07-29T09:17:03.274Z,48.49
2022-07-29T09:19:32.713Z,47.99
2022-07-29T09:22:03.322Z,47.77
2022-07-29T09:24:43.282Z,48.27
2022-07-29T09:27:21.879Z,48.05
2022-07-29T09:30:06.324Z,48.01
2022-07-29T09:32:35.212Z,47.79
2022-07-29T09:35:21.298Z,48.08
2022-07-29T09:37:57.010Z,47.83
2022-07-29T09:40:29.979Z,48.11
2022-07-29T09:43:04.153Z,48.10
2022-07-29T09:45:44.111Z,48.33
2022-07-29T09:48:17.698Z,48.00
2022-07-29T09:50:47.825Z,47.68
2022-07-29T09:53:32.491Z,48.14
2022-07-29T09:56:06.909Z,47.93
2022-07-29T09:58:36.787Z,48.02
2022-07-29T10:01:07.475Z,48.20
2022-07-29T10:03:52.667Z,47.73
2022-07-29T10:06:29.464Z,47.53
2022-07-29T10:09:08.726Z,47.54
2022-07-29T10:11:48.154Z,47.20
2022-07-29T10:14:21.134Z,47.07
2022-07-29T10:16:55.514Z,47.14
2022-07-29T10:19:39.960Z,46.85
2022-07-29T10:22:12.683Z,45.95
2022-07-29T10:24:42.435Z,46.08
2022-07-29T10:27:13.657Z,45.98
2022-07-29T10:29:42.902Z,46.68
2022-07-29T10:32:28.811Z,46.96
2022-07-29T10:35:21.814Z,46.82
2022-07-29T10:38:19.729Z,47.72
2022-07-29T10:41:19.557Z,47.64
2022-07-29T10:44:02.849Z,47.73
2022-07-29T10:46:38.489Z,48.12
2022-07-29T10:49:18.173Z,47.97
2022-07-29T10:51:55.830Z,48.15
2022-07-29T10:55:01.353Z,48.04
2022-07-29T10:57:57.728Z,48.17
2022-07-29T11:00:45.482Z,47.90
2022-07-29T11:03:50.539Z,47.72
2022-07-29T11:06:26.369Z,47.73
2022-07-29T11:12:54.388Z,47.40
2022-07-29T11:15:25.212Z,47.78
2022-07-29T11:18:15.176Z,47.84
2022-07-29T11:20:47.823Z,48.13
2022-07-29T11:23:27.601Z,48.03
2022-07-29T11:26:21.164Z,48.02
2022-07-29T11:29:04.561Z,48.03
2022-07-29T11:31:42.431Z,47.89
2022-07-29T11:34:22.590Z,47.79
2022-07-29T11:37:28.207Z,47.71
2022-07-29T11:40:21.345Z,47.53
2022-07-29T11:42:55.298Z,47.48
2022-07-29T11:48:34.797Z,47.20
2022-07-29T11:51:11.802Z,47.19
2022-07-29T11:53:52.617Z,47.16
2022-07-29T11:56:25.588Z,47.11
2022-07-29T11:59:08.480Z,47.23
2022-07-29T12:02:06.678Z,47.26
2022-07-29T12:04:52.529Z,46.95
2022-07-29T12:07:21.341Z,46.89
2022-07-29T12:10:00.671Z,46.98
2022-07-29T12:12:54.166Z,46.30
2022-07-29T12:15:24.942Z,46.94
2022-07-29T12:18:24.310Z,46.62
2022-07-29T12:20:59.570Z,46.38
2022-07-29T12:23:35.551Z,46.32
2022-07-29T12:26:07.483Z,46.41
2022-07-29T12:29:11.475Z,45.50
2022-07-29T12:31:47.475Z,46.23
2022-07-29T12:34:17.975Z,46.12
2022-07-29T12:36:46.424Z,46.23
2022-07-29T12:39:14.651Z,46.19
2022-07-29T12:41:42.564Z,45.96
2022-07-29T12:44:11.973Z,46.12
2022-07-29T12:46:40.299Z,45.99
2022-07-29T12:49:08.630Z,46.02
2022-07-29T12:51:39.997Z,45.83
2022-07-29T12:54:11.276Z,45.86
2022-07-29T12:56:43.611Z,46.15
2022-07-29T12:59:22.567Z,45.42
2022-07-29T13:01:52.872Z,45.55
2022-07-29T13:04:31.713Z,45.15
2022-07-29T13:07:06.672Z,45.00
2022-07-29T13:09:41.973Z,45.24
2022-07-29T13:12:13.562Z,45.07
2022-07-29T13:14:44.466Z,45.12
2022-07-29T13:17:16.703Z,44.77
2022-07-29T13:19:46.604Z,44.66
2022-07-29T13:22:16.508Z,44.88
2022-07-29T13:24:52.235Z,44.82
2022-07-29T13:27:21.626Z,45.36
2022-07-29T13:29:52.303Z,45.51
2022-07-29T13:32:27.801Z,45.24
2022-07-29T13:35:01.105Z,44.78
2022-07-29T13:37:56.424Z,44.04
2022-07-29T13:40:24.325Z,44.99
2022-07-29T13:42:52.358Z,44.79
2022-07-29T13:45:21.659Z,44.87
2022-07-29T13:47:51.176Z,44.84
2022-07-29T13:50:25.341Z,44.74
2022-07-29T13:52:53.993Z,44.78
2022-07-29T13:55:22.095Z,44.39
2022-07-29T13:57:56.280Z,44.17
2022-07-29T14:00:29.600Z,44.24
2022-07-29T14:03:03.209Z,43.45
2022-07-29T14:05:31.248Z,43.98
2022-07-29T14:07:59.249Z,43.57
2022-07-29T14:10:28.285Z,43.26
2022-07-29T14:12:56.456Z,42.90
2022-07-29T14:15:24.359Z,42.22
2022-07-29T14:17:53.646Z,42.55
2022-07-29T14:20:21.598Z,42.41
2022-07-29T14:22:49.503Z,42.16
2022-07-29T14:25:18.215Z,42.81
2022-07-29T14:27:49.235Z,42.95
2022-07-29T14:30:17.067Z,42.82
2022-07-29T14:32:45.465Z,42.61
2022-07-29T14:35:14.855Z,42.73
2022-07-29T14:37:42.796Z,43.00
2022-07-29T14:40:12.344Z,42.58
2022-07-29T14:42:40.532Z,42.54
2022-07-29T14:45:10.430Z,42.65
2022-07-29T14:47:38.607Z,42.18
2022-07-29T14:50:07.752Z,42.26
2022-07-29T14:52:37.064Z,42.35
2022-07-29T14:55:19.431Z,42.08
2022-07-29T14:57:48.599Z,42.30
2022-07-29T15:00:17.444Z,42.05
2022-07-29T15:03:01.378Z,42.53
2022-07-29T15:05:30.797Z,42.68
2022-07-29T15:08:01.105Z,42.49
2022-07-29T15:10:29.778Z,42.96
2022-07-29T15:12:58.172Z,42.60
2022-07-29T15:15:26.287Z,42.79
2022-07-29T15:17:54.194Z,42.10
2022-07-29T15:20:22.351Z,42.39
2022-07-29T15:22:50.431Z,42.41
2022-07-29T15:25:19.997Z,42.32
2022-07-29T15:27:48.894Z,41.80
2022-07-29T15:30:30.295Z,42.43
2022-07-29T15:33:03.175Z,41.92
2022-07-29T15:35:31.537Z,42.36
2022-07-29T15:37:59.509Z,42.33
2022-07-29T15:40:29.186Z,42.38
2022-07-29T15:42:57.227Z,42.27
2022-07-29T15:45:25.414Z,42.24
2022-07-29T15:47:53.253Z,42.33
2022-07-29T15:50:21.302Z,42.74
2022-07-29T15:52:49.189Z,42.27
2022-07-29T15:55:17.097Z,42.31
2022-07-29T15:57:46.322Z,42.56
2022-07-29T16:00:17.118Z,42.79
2022-07-29T16:02:45.583Z,42.81
2022-07-29T16:05:13.507Z,42.30
2022-07-29T16:07:41.469Z,42.58
2022-07-29T16:10:09.875Z,42.99
2022-07-29T16:12:37.746Z,42.41
2022-07-29T16:15:10.448Z,42.62
2022-07-29T16:17:38.850Z,42.48
2022-07-29T16:20:08.329Z,42.45
2022-07-29T16:22:36.416Z,42.41
2022-07-29T16:25:04.844Z,42.17
2022-07-29T16:27:37.529Z,42.13
2022-07-29T16:30:09.977Z,42.17
2022-07-29T16:32:37.966Z,42.58
2022-07-29T16:35:06.569Z,42.36
2022-07-29T16:37:36.540Z,42.47
2022-07-29T16:40:06.331Z,42.47
2022-07-29T16:42:46.520Z,42.47
2022-07-29T16:45:21.011Z,42.65
2022-07-29T16:47:49.568Z,42.28
2022-07-29T16:50:17.876Z,42.38
2022-07-29T16:52:45.782Z,42.04
2022-07-29T16:55:13.763Z,42.55
2022-07-29T16:57:42.723Z,41.94
2022-07-29T17:00:11.739Z,42.44
2022-07-29T17:02:41.093Z,42.42
2022-07-29T17:05:10.570Z,42.16
2022-07-29T17:07:38.499Z,42.57
2022-07-29T17:10:09.049Z,42.01
2022-07-29T17:12:37.835Z,42.11
2022-07-29T17:15:06.977Z,42.52
2022-07-29T17:17:39.276Z,42.45
2022-07-29T17:20:24.318Z,42.42
2022-07-29T17:22:52.207Z,42.50
2022-07-29T17:25:20.786Z,42.37
2022-07-29T17:27:49.698Z,42.77
2022-07-29T17:30:17.645Z,42.50
2022-07-29T17:32:45.667Z,42.76
2022-07-29T17:35:31.011Z,42.66
2022-07-29T17:38:00.407Z,42.67
2022-07-29T17:40:28.481Z,42.58
2022-07-29T17:42:56.359Z,42.66
2022-07-29T17:45:24.279Z,42.62
2022-07-29T17:47:52.250Z,42.98
2022-07-29T17:50:20.213Z,42.63
2022-07-29T17:52:48.125Z,43.03
2022-07-29T17:55:17.666Z,42.97
2022-07-29T17:57:45.531Z,43.26
2022-07-29T18:00:17.183Z,43.36
2022-07-29T18:02:45.163Z,43.38
2022-07-29T18:05:13.187Z,43.23
2022-07-29T18:07:41.266Z,43.34
2022-07-29T18:10:10.022Z,43.02
2022-07-29T18:12:39.466Z,43.34
2022-07-29T18:15:08.192Z,43.73
2022-07-29T18:17:57.383Z,43.67
2022-07-29T18:20:24.162Z,43.82
2022-07-29T18:22:52.059Z,44.16
2022-07-29T18:25:20.776Z,43.94
2022-07-29T18:27:50.268Z,43.63
2022-07-29T18:30:19.203Z,43.85
2022-07-29T18:33:18.110Z,44.02
2022-07-29T18:35:37.288Z,43.76
2022-07-29T18:38:06.133Z,43.70
2022-07-29T18:40:34.493Z,43.79
2022-07-29T18:43:03.699Z,43.92
2022-07-29T18:45:31.767Z,43.76
2022-07-29T18:48:00.808Z,43.64
2022-07-29T18:50:30.064Z,43.71
2022-07-29T18:52:58.823Z,43.73
2022-07-29T18:55:27.417Z,44.08
2022-07-29T18:57:57.062Z,44.05
2022-07-29T19:00:27.723Z,44.12
2022-07-29T19:02:56.198Z,44.23
2022-07-29T19:05:24.829Z,44.17
2022-07-29T19:07:54.795Z,44.35
2022-07-29T19:10:22.824Z,44.18
2022-07-29T19:12:50.834Z,44.21
2022-07-29T19:15:19.932Z,44.16
2022-07-29T19:17:50.264Z,44.24
2022-07-29T19:20:18.298Z,44.08
2022-07-29T19:22:46.598Z,44.09
2022-07-29T19:25:15.258Z,43.99
2022-07-29T19:27:43.196Z,44.01
2022-07-29T19:30:11.688Z,43.79
2022-07-29T19:32:40.057Z,44.10
2022-07-29T19:35:27.056Z,44.15
2022-07-29T19:37:56.555Z,44.12
2022-07-29T19:40:26.009Z,44.40
2022-07-29T19:42:54.245Z,44.40
2022-07-29T19:45:23.050Z,44.62
2022-07-29T19:47:51.283Z,44.52
2022-07-29T19:50:20.628Z,44.54
2022-07-29T19:52:48.766Z,44.53
2022-07-29T19:55:16.864Z,44.88
2022-07-29T19:57:47.308Z,45.03
2022-07-29T20:00:16.504Z,45.34
2022-07-29T20:02:44.584Z,45.66
2022-07-29T20:05:13.589Z,45.74
2022-07-29T20:07:42.910Z,46.16
2022-07-29T20:10:11.786Z,46.18
2022-07-29T20:12:42.523Z,46.27
2022-07-29T20:15:16.321Z,46.44
2022-07-29T20:17:44.808Z,46.72
2022-07-29T20:20:13.112Z,47.30
2022-07-29T20:22:42.846Z,47.46
2022-07-29T20:25:11.910Z,47.46
2022-07-29T20:27:40.664Z,47.32
2022-07-29T20:30:13.265Z,47.19
2022-07-29T20:32:41.460Z,47.09
2022-07-29T20:35:12.182Z,47.53
2022-07-29T20:37:52.065Z,47.52
2022-07-29T20:40:25.735Z,47.74
2022-07-29T20:42:53.668Z,48.13
2022-07-29T20:45:21.814Z,48.06
2022-07-29T20:47:51.031Z,48.36
2022-07-29T20:50:19.430Z,48.17
2022-07-29T20:52:47.432Z,48.13
2022-07-29T20:55:15.975Z,47.96
2022-07-29T20:57:45.443Z,48.11
2022-07-29T21:00:14.309Z,48.25
2022-07-29T21:02:42.400Z,48.29
2022-07-29T21:05:11.568Z,48.59
2022-07-29T21:07:39.667Z,48.64
2022-07-29T21:10:08.832Z,48.97
2022-07-29T21:12:36.841Z,48.58
2022-07-29T21:15:07.060Z,48.42
2022-07-29T21:17:38.702Z,48.79
2022-07-29T21:20:08.734Z,49.19
2022-07-29T21:22:36.680Z,48.92
2022-07-29T21:25:05.704Z,48.69
2022-07-29T21:27:50.868Z,48.83
2022-07-29T21:30:20.319Z,48.83
2022-07-29T21:32:48.454Z,48.55
2022-07-29T21:35:35.693Z,48.28
2022-07-29T21:38:04.754Z,48.32
2022-07-29T21:40:32.805Z,48.25
2022-07-29T21:43:00.693Z,48.72
2022-07-29T21:45:30.005Z,49.09
2022-07-29T21:47:57.952Z,49.23
2022-07-29T21:50:26.543Z,50.00
2022-07-29T21:52:54.629Z,50.51
2022-07-29T21:55:24.326Z,50.79
2022-07-29T21:57:54.265Z,50.83
2022-07-29T22:00:25.499Z,50.87
2022-07-29T22:02:55.032Z,51.08
2022-07-29T22:05:22.976Z,51.07
2022-07-29T22:07:56.361Z,51.28
2022-07-29T22:10:25.840Z,56.19
2022-07-29T22:12:54.883Z,51.65
2022-07-29T22:15:23.173Z,51.83
2022-07-29T22:17:51.168Z,52.50
2022-07-29T22:20:21.011Z,52.27
2022-07-29T22:22:49.050Z,52.73
2022-07-29T22:25:17.747Z,52.46
2022-07-29T22:27:45.905Z,52.47
2022-07-29T22:30:14.301Z,52.44
2022-07-29T22:32:42.374Z,53.05
2022-07-29T22:35:10.564Z,53.01
2022-07-29T22:37:40.166Z,52.98
2022-07-29T22:40:09.157Z,53.70
2022-07-29T22:42:40.842Z,53.62
2022-07-29T22:45:10.647Z,53.82
2022-07-29T22:47:48.196Z,53.89
2022-07-29T22:50:17.070Z,53.79
2022-07-29T22:52:46.922Z,53.97
2022-07-29T22:55:15.400Z,54.31
2022-07-29T22:57:43.583Z,54.41
2022-07-29T23:00:12.400Z,54.51
2022-07-29T23:02:41.350Z,54.23
2022-07-29T23:05:10.406Z,54.61
2022-07-29T23:07:38.410Z,54.54
2022-07-29T23:10:09.025Z,54.58
2022-07-29T23:12:37.364Z,54.84
2022-07-29T23:15:05.750Z,55.08
2022-07-29T23:17:36.696Z,55.57
2022-07-29T23:20:07.661Z,56.51
2022-07-29T23:22:35.871Z,55.90
2022-07-29T23:25:03.785Z,56.01
2022-07-29T23:27:33.205Z,56.12
2022-07-29T23:30:01.246Z,56.74
2022-07-29T23:32:29.267Z,56.16
2022-07-29T23:34:57.308Z,56.29
2022-07-29T23:37:26.623Z,56.37
2022-07-29T23:39:55.229Z,56.77
2022-07-29T23:42:23.306Z,56.33
2022-07-29T23:44:53.009Z,56.18
2022-07-29T23:47:20.998Z,56.48
2022-07-29T23:49:50.026Z,56.03
2022-07-29T23:52:18.654Z,55.85
2022-07-29T23:54:46.760Z,55.15
2022-07-29T23:57:14.704Z,55.27
2022-07-29T23:59:42.654Z,55.56
